sensor_id;sensor_type;location;lat;lon;timestamp;pressure;altitude;pressure_sealevel;temperature;humidity
60589;BME280;46421;48.610;9.334;2023-02-03T00:01:51;99307.31;;;4.79;94.35
60589;BME280;46421;48.610;9.334;2023-02-03T00:04:16;99300.56;;;4.75;94.76
60589;BME280;46421;48.610;9.334;2023-02-03T00:06:42;99299.28;;;4.81;94.05
60589;BME280;46421;48.610;9.334;2023-02-03T00:09:08;99297.09;;;4.74;94.97
60589;BME280;46421;48.610;9.334;2023-02-03T00:11:33;99302.50;;;4.73;94.88
60589;BME280;46421;48.610;9.334;2023-02-03T00:13:59;99307.81;;;4.84;93.81
60589;BME280;46421;48.610;9.334;2023-02-03T00:16:24;99300.88;;;4.83;94.64
60589;BME280;46421;48.610;9.334;2023-02-03T00:18:49;99298.47;;;4.80;94.43
60589;BME280;46421;48.610;9.334;2023-02-03T00:21:15;99285.50;;;4.77;94.27
60589;BME280;46421;48.610;9.334;2023-02-03T00:23:41;99289.31;;;4.73;95.16
60589;BME280;46421;48.610;9.334;2023-02-03T00:26:08;99287.38;;;4.75;94.78
60589;BME280;46421;48.610;9.334;2023-02-03T00:28:33;99280.25;;;4.64;95.27
60589;BME280;46421;48.610;9.334;2023-02-03T00:30:59;99282.69;;;4.67;95.24
60589;BME280;46421;48.610;9.334;2023-02-03T00:33:24;99284.88;;;4.73;94.93
60589;BME280;46421;48.610;9.334;2023-02-03T00:35:49;99285.63;;;4.75;95.08
60589;BME280;46421;48.610;9.334;2023-02-03T00:38:15;99285.94;;;4.71;95.03
60589;BME280;46421;48.610;9.334;2023-02-03T00:40:40;99290.25;;;4.72;95.16
60589;BME280;46421;48.610;9.334;2023-02-03T00:43:05;99292.66;;;4.75;94.83
60589;BME280;46421;48.610;9.334;2023-02-03T00:45:31;99290.59;;;4.67;95.55
60589;BME280;46421;48.610;9.334;2023-02-03T00:47:56;99288.25;;;4.75;94.70
60589;BME280;46421;48.610;9.334;2023-02-03T00:50:21;99285.09;;;4.70;94.77
60589;BME280;46421;48.610;9.334;2023-02-03T00:52:47;99283.41;;;4.69;94.85
60589;BME280;46421;48.610;9.334;2023-02-03T00:55:12;99297.53;;;4.68;95.03
60589;BME280;46421;48.610;9.334;2023-02-03T00:57:38;99301.63;;;4.72;94.97
60589;BME280;46421;48.610;9.334;2023-02-03T01:00:03;99302.69;;;4.70;95.85
60589;BME280;46421;48.610;9.334;2023-02-03T01:02:29;99308.41;;;4.64;96.09
60589;BME280;46421;48.610;9.334;2023-02-03T01:04:54;99300.94;;;4.57;96.27
60589;BME280;46421;48.610;9.334;2023-02-03T01:07:20;99326.84;;;4.64;97.18
60589;BME280;46421;48.610;9.334;2023-02-03T01:09:45;99330.72;;;4.71;96.28
60589;BME280;46421;48.610;9.334;2023-02-03T01:12:10;99322.19;;;4.67;96.34
60589;BME280;46421;48.610;9.334;2023-02-03T01:14:36;99316.06;;;4.67;96.77
60589;BME280;46421;48.610;9.334;2023-02-03T01:17:01;99327.03;;;4.73;96.20
60589;BME280;46421;48.610;9.334;2023-02-03T01:19:26;99322.41;;;4.64;96.93
60589;BME280;46421;48.610;9.334;2023-02-03T01:21:52;99311.03;;;4.64;96.75
60589;BME280;46421;48.610;9.334;2023-02-03T01:24:17;99307.66;;;4.62;97.51
60589;BME280;46421;48.610;9.334;2023-02-03T01:26:42;99306.91;;;4.59;97.53
60589;BME280;46421;48.610;9.334;2023-02-03T01:29:08;99294.38;;;4.63;97.34
60589;BME280;46421;48.610;9.334;2023-02-03T01:31:37;99284.38;;;4.55;97.82
60589;BME280;46421;48.610;9.334;2023-02-03T01:34:05;99255.53;;;4.54;98.20
60589;BME280;46421;48.610;9.334;2023-02-03T01:36:33;99255.91;;;4.61;97.45
60589;BME280;46421;48.610;9.334;2023-02-03T01:38:58;99253.19;;;4.62;97.41
60589;BME280;46421;48.610;9.334;2023-02-03T01:41:33;99270.03;;;4.59;96.89
60589;BME280;46421;48.610;9.334;2023-02-03T01:44:00;99279.31;;;4.65;97.25
60589;BME280;46421;48.610;9.334;2023-02-03T01:46:32;99279.41;;;4.64;96.84
60589;BME280;46421;48.610;9.334;2023-02-03T01:49:07;99260.25;;;4.62;96.26
60589;BME280;46421;48.610;9.334;2023-02-03T01:51:37;99252.44;;;4.73;96.16
60589;BME280;46421;48.610;9.334;2023-02-03T01:54:06;99248.00;;;4.73;95.76
60589;BME280;46421;48.610;9.334;2023-02-03T01:56:35;99233.78;;;4.63;96.06
60589;BME280;46421;48.610;9.334;2023-02-03T01:59:03;99243.06;;;4.69;95.15
60589;BME280;46421;48.610;9.334;2023-02-03T02:01:30;99237.03;;;4.67;95.83
60589;BME280;46421;48.610;9.334;2023-02-03T02:03:56;99249.19;;;4.69;95.67
60589;BME280;46421;48.610;9.334;2023-02-03T02:06:23;99249.72;;;4.62;95.60
60589;BME280;46421;48.610;9.334;2023-02-03T02:08:50;99259.38;;;4.74;95.23
60589;BME280;46421;48.610;9.334;2023-02-03T02:11:16;99259.59;;;4.71;94.91
60589;BME280;46421;48.610;9.334;2023-02-03T02:13:43;99256.47;;;4.66;95.46
60589;BME280;46421;48.610;9.334;2023-02-03T02:16:16;99255.16;;;4.71;95.31
60589;BME280;46421;48.610;9.334;2023-02-03T02:21:55;99245.53;;;4.83;94.40
60589;BME280;46421;48.610;9.334;2023-02-03T02:30:56;99206.41;;;4.90;93.40
60589;BME280;46421;48.610;9.334;2023-02-03T02:39:12;99198.09;;;4.83;94.08
60589;BME280;46421;48.610;9.334;2023-02-03T02:42:05;99213.28;;;4.80;93.70
60589;BME280;46421;48.610;9.334;2023-02-03T02:44:48;99213.63;;;4.75;94.39
60589;BME280;46421;48.610;9.334;2023-02-03T02:47:18;99214.44;;;4.88;93.32
60589;BME280;46421;48.610;9.334;2023-02-03T02:50:00;99197.50;;;4.80;93.85
60589;BME280;46421;48.610;9.334;2023-02-03T02:52:30;99192.28;;;4.91;93.16
60589;BME280;46421;48.610;9.334;2023-02-03T02:55:04;99192.41;;;4.89;92.69
60589;BME280;46421;48.610;9.334;2023-02-03T02:57:33;99183.78;;;4.87;93.60
60589;BME280;46421;48.610;9.334;2023-02-03T03:00:00;99178.25;;;4.90;92.96
60589;BME280;46421;48.610;9.334;2023-02-03T03:02:33;99188.19;;;4.87;93.17
60589;BME280;46421;48.610;9.334;2023-02-03T03:04:59;99213.38;;;4.91;92.75
60589;BME280;46421;48.610;9.334;2023-02-03T03:07:26;99224.41;;;4.96;92.13
60589;BME280;46421;48.610;9.334;2023-02-03T03:09:58;99219.94;;;4.85;93.15
60589;BME280;46421;48.610;9.334;2023-02-03T03:12:34;99224.56;;;4.82;92.76
60589;BME280;46421;48.610;9.334;2023-02-03T03:15:07;99230.47;;;4.85;92.86
60589;BME280;46421;48.610;9.334;2023-02-03T03:17:48;99216.56;;;4.83;92.97
60589;BME280;46421;48.610;9.334;2023-02-03T03:20:20;99215.06;;;4.92;92.22
60589;BME280;46421;48.610;9.334;2023-02-03T03:22:56;99214.44;;;4.88;92.00
60589;BME280;46421;48.610;9.334;2023-02-03T03:25:35;99199.78;;;4.84;92.37
60589;BME280;46421;48.610;9.334;2023-02-03T03:28:07;99209.47;;;4.97;91.65
60589;BME280;46421;48.610;9.334;2023-02-03T03:30:36;99212.31;;;4.94;92.24
60589;BME280;46421;48.610;9.334;2023-02-03T03:33:03;99209.19;;;4.88;91.76
60589;BME280;46421;48.610;9.334;2023-02-03T03:35:41;99187.81;;;4.80;92.23
60589;BME280;46421;48.610;9.334;2023-02-03T03:38:15;99200.31;;;4.89;91.75
60589;BME280;46421;48.610;9.334;2023-02-03T03:40:50;99211.69;;;4.90;91.43
60589;BME280;46421;48.610;9.334;2023-02-03T03:43:24;99229.81;;;4.95;91.97
60589;BME280;46421;48.610;9.334;2023-02-03T03:46:07;99241.91;;;4.97;91.06
60589;BME280;46421;48.610;9.334;2023-02-03T03:48:49;99247.84;;;4.88;91.52
60589;BME280;46421;48.610;9.334;2023-02-03T03:51:20;99250.16;;;4.93;91.26
60589;BME280;46421;48.610;9.334;2023-02-03T03:53:49;99245.38;;;4.98;91.79
60589;BME280;46421;48.610;9.334;2023-02-03T03:56:20;99249.50;;;5.02;92.02
60589;BME280;46421;48.610;9.334;2023-02-03T03:58:49;99261.19;;;4.98;92.13
60589;BME280;46421;48.610;9.334;2023-02-03T04:01:16;99266.47;;;4.98;90.86
60589;BME280;46421;48.610;9.334;2023-02-03T04:04:02;99271.84;;;4.96;91.30
60589;BME280;46421;48.610;9.334;2023-02-03T04:06:30;99285.66;;;5.00;91.48
60589;BME280;46421;48.610;9.334;2023-02-03T04:08:56;99290.91;;;5.00;91.12
60589;BME280;46421;48.610;9.334;2023-02-03T04:11:21;99290.72;;;5.03;90.75
60589;BME280;46421;48.610;9.334;2023-02-03T04:14:05;99300.72;;;4.98;91.88
60589;BME280;46421;48.610;9.334;2023-02-03T04:16:30;99292.81;;;4.98;90.87
60589;BME280;46421;48.610;9.334;2023-02-03T04:18:56;99283.00;;;5.00;90.99
60589;BME280;46421;48.610;9.334;2023-02-03T04:21:21;99279.22;;;5.04;90.45
60589;BME280;46421;48.610;9.334;2023-02-03T04:23:46;99259.94;;;4.90;90.57
60589;BME280;46421;48.610;9.334;2023-02-03T04:26:12;99265.31;;;5.02;91.05
60589;BME280;46421;48.610;9.334;2023-02-03T04:28:37;99265.50;;;4.99;91.26
60589;BME280;46421;48.610;9.334;2023-02-03T04:31:03;99235.84;;;4.84;91.31
60589;BME280;46421;48.610;9.334;2023-02-03T04:33:28;99261.94;;;5.00;91.67
60589;BME280;46421;48.610;9.334;2023-02-03T04:35:54;99274.72;;;4.93;91.98
60589;BME280;46421;48.610;9.334;2023-02-03T04:38:19;99267.34;;;4.85;92.29
60589;BME280;46421;48.610;9.334;2023-02-03T04:40:45;99259.00;;;4.91;92.86
60589;BME280;46421;48.610;9.334;2023-02-03T04:43:10;99257.88;;;4.83;93.03
60589;BME280;46421;48.610;9.334;2023-02-03T04:45:36;99242.28;;;4.80;94.37
60589;BME280;46421;48.610;9.334;2023-02-03T04:48:02;99229.84;;;4.82;94.33
60589;BME280;46421;48.610;9.334;2023-02-03T04:50:29;99226.59;;;4.78;95.11
60589;BME280;46421;48.610;9.334;2023-02-03T04:52:55;99218.50;;;4.68;95.25
60589;BME280;46421;48.610;9.334;2023-02-03T04:55:23;99230.19;;;4.64;95.23
60589;BME280;46421;48.610;9.334;2023-02-03T04:57:48;99230.75;;;4.69;95.37
60589;BME280;46421;48.610;9.334;2023-02-03T05:00:14;99227.38;;;4.67;96.21
60589;BME280;46421;48.610;9.334;2023-02-03T05:02:39;99213.72;;;4.49;96.66
60589;BME280;46421;48.610;9.334;2023-02-03T05:05:05;99232.22;;;4.61;96.85
60589;BME280;46421;48.610;9.334;2023-02-03T05:07:30;99238.03;;;4.66;96.59
60589;BME280;46421;48.610;9.334;2023-02-03T05:09:56;99225.56;;;4.68;95.58
60589;BME280;46421;48.610;9.334;2023-02-03T05:12:21;99225.69;;;4.66;95.57
60589;BME280;46421;48.610;9.334;2023-02-03T05:14:46;99225.47;;;4.69;96.05
60589;BME280;46421;48.610;9.334;2023-02-03T05:17:12;99226.88;;;4.62;96.12
60589;BME280;46421;48.610;9.334;2023-02-03T05:19:37;99242.44;;;4.65;97.07
60589;BME280;46421;48.610;9.334;2023-02-03T05:22:03;99241.69;;;4.63;98.49
60589;BME280;46421;48.610;9.334;2023-02-03T05:24:28;99251.41;;;4.63;97.49
60589;BME280;46421;48.610;9.334;2023-02-03T05:26:53;99257.72;;;4.60;98.23
60589;BME280;46421;48.610;9.334;2023-02-03T05:29:19;99252.66;;;4.57;98.30
60589;BME280;46421;48.610;9.334;2023-02-03T05:31:44;99262.88;;;4.62;97.81
60589;BME280;46421;48.610;9.334;2023-02-03T05:34:09;99250.97;;;4.56;97.78
60589;BME280;46421;48.610;9.334;2023-02-03T05:36:35;99257.19;;;4.55;98.87
60589;BME280;46421;48.610;9.334;2023-02-03T05:39:00;99244.44;;;4.62;98.32
60589;BME280;46421;48.610;9.334;2023-02-03T05:41:25;99231.81;;;4.54;97.90
60589;BME280;46421;48.610;9.334;2023-02-03T05:44:10;99249.72;;;4.49;98.32
60589;BME280;46421;48.610;9.334;2023-02-03T05:46:35;99258.78;;;4.57;98.71
60589;BME280;46421;48.610;9.334;2023-02-03T05:49:00;99270.28;;;4.56;99.76
60589;BME280;46421;48.610;9.334;2023-02-03T05:51:26;99271.84;;;4.46;99.44
60589;BME280;46421;48.610;9.334;2023-02-03T05:53:52;99268.06;;;4.50;100.00
60589;BME280;46421;48.610;9.334;2023-02-03T05:56:17;99253.84;;;4.40;100.00
60589;BME280;46421;48.610;9.334;2023-02-03T05:58:43;99257.00;;;4.45;100.00
60589;BME280;46421;48.610;9.334;2023-02-03T06:01:08;99261.00;;;4.38;100.00
60589;BME280;46421;48.610;9.334;2023-02-03T06:03:35;99251.22;;;4.40;100.00
60589;BME280;46421;48.610;9.334;2023-02-03T06:06:01;99251.53;;;4.35;100.00
60589;BME280;46421;48.610;9.334;2023-02-03T06:08:26;99239.00;;;4.39;100.00
60589;BME280;46421;48.610;9.334;2023-02-03T06:10:56;99238.56;;;4.45;100.00
60589;BME280;46421;48.610;9.334;2023-02-03T06:13:22;99239.63;;;4.42;99.59
60589;BME280;46421;48.610;9.334;2023-02-03T06:15:48;99247.66;;;4.41;99.25
60589;BME280;46421;48.610;9.334;2023-02-03T06:18:13;99253.97;;;4.38;98.67
60589;BME280;46421;48.610;9.334;2023-02-03T06:20:38;99262.38;;;4.43;98.72
60589;BME280;46421;48.610;9.334;2023-02-03T06:23:04;99249.34;;;4.42;98.41
60589;BME280;46421;48.610;9.334;2023-02-03T06:25:29;99249.53;;;4.39;98.09
60589;BME280;46421;48.610;9.334;2023-02-03T06:27:56;99237.13;;;4.41;97.89
60589;BME280;46421;48.610;9.334;2023-02-03T06:30:21;99236.88;;;4.44;96.84
60589;BME280;46421;48.610;9.334;2023-02-03T06:32:47;99231.84;;;4.41;97.41
60589;BME280;46421;48.610;9.334;2023-02-03T06:35:13;99231.94;;;4.39;96.62
60589;BME280;46421;48.610;9.334;2023-02-03T06:37:38;99235.00;;;4.46;95.55
60589;BME280;46421;48.610;9.334;2023-02-03T06:40:04;99229.72;;;4.46;95.50
60589;BME280;46421;48.610;9.334;2023-02-03T06:42:30;99243.41;;;4.51;95.48
60589;BME280;46421;48.610;9.334;2023-02-03T06:44:55;99237.31;;;4.51;94.47
60589;BME280;46421;48.610;9.334;2023-02-03T06:47:21;99216.84;;;4.54;93.20
60589;BME280;46421;48.610;9.334;2023-02-03T06:49:46;99241.50;;;4.53;94.22
60589;BME280;46421;48.610;9.334;2023-02-03T06:52:11;99236.22;;;4.53;94.87
60589;BME280;46421;48.610;9.334;2023-02-03T06:54:37;99230.75;;;4.56;93.07
60589;BME280;46421;48.610;9.334;2023-02-03T06:57:02;99230.75;;;4.56;94.86
60589;BME280;46421;48.610;9.334;2023-02-03T06:59:28;99219.50;;;4.41;97.32
60589;BME280;46421;48.610;9.334;2023-02-03T07:01:53;99210.38;;;4.34;98.13
60589;BME280;46421;48.610;9.334;2023-02-03T07:04:19;99192.16;;;4.31;98.68
60589;BME280;46421;48.610;9.334;2023-02-03T07:06:44;99192.50;;;4.26;100.00
60589;BME280;46421;48.610;9.334;2023-02-03T07:09:10;99197.53;;;4.30;98.84
60589;BME280;46421;48.610;9.334;2023-02-03T07:11:35;99200.91;;;4.32;98.75
60589;BME280;46421;48.610;9.334;2023-02-03T07:14:00;99201.84;;;4.31;98.21
60589;BME280;46421;48.610;9.334;2023-02-03T07:16:26;99212.06;;;4.35;98.72
60589;BME280;46421;48.610;9.334;2023-02-03T07:18:52;99213.22;;;4.31;99.97
60589;BME280;46421;48.610;9.334;2023-02-03T07:21:17;99226.03;;;4.36;99.09
60589;BME280;46421;48.610;9.334;2023-02-03T07:23:45;99219.00;;;4.36;99.13
60589;BME280;46421;48.610;9.334;2023-02-03T07:26:11;99200.78;;;4.20;100.00
60589;BME280;46421;48.610;9.334;2023-02-03T07:28:36;99217.53;;;4.32;99.71
60589;BME280;46421;48.610;9.334;2023-02-03T07:31:02;99212.56;;;4.40;100.00
60589;BME280;46421;48.610;9.334;2023-02-03T07:33:37;99202.34;;;4.36;100.00
60589;BME280;46421;48.610;9.334;2023-02-03T07:36:04;99182.03;;;4.38;100.00
60589;BME280;46421;48.610;9.334;2023-02-03T07:38:29;99197.91;;;4.49;100.00
60589;BME280;46421;48.610;9.334;2023-02-03T07:40:55;99199.59;;;4.50;98.03
60589;BME280;46421;48.610;9.334;2023-02-03T07:43:21;99206.53;;;4.51;98.54
60589;BME280;46421;48.610;9.334;2023-02-03T07:45:46;99207.06;;;4.56;98.11
60589;BME280;46421;48.610;9.334;2023-02-03T07:48:12;99211.56;;;4.67;99.43
60589;BME280;46421;48.610;9.334;2023-02-03T07:50:38;99223.25;;;4.63;98.45
60589;BME280;46421;48.610;9.334;2023-02-03T07:53:03;99224.22;;;4.62;100.00
60589;BME280;46421;48.610;9.334;2023-02-03T07:55:29;99234.22;;;4.57;99.77
60589;BME280;46421;48.610;9.334;2023-02-03T07:57:55;99239.69;;;4.67;100.00
60589;BME280;46421;48.610;9.334;2023-02-03T08:00:21;99258.34;;;4.64;99.34
60589;BME280;46421;48.610;9.334;2023-02-03T08:02:47;99266.56;;;4.59;99.41
60589;BME280;46421;48.610;9.334;2023-02-03T08:05:13;99253.69;;;4.67;100.00
60589;BME280;46421;48.610;9.334;2023-02-03T08:07:39;99266.44;;;4.73;99.56
60589;BME280;46421;48.610;9.334;2023-02-03T08:10:05;99267.63;;;4.69;99.59
60589;BME280;46421;48.610;9.334;2023-02-03T08:12:30;99272.16;;;4.67;100.00
60589;BME280;46421;48.610;9.334;2023-02-03T08:14:56;99290.38;;;4.70;99.46
60589;BME280;46421;48.610;9.334;2023-02-03T08:17:21;99301.31;;;4.77;99.97
60589;BME280;46421;48.610;9.334;2023-02-03T08:19:46;99299.94;;;4.71;100.00
60589;BME280;46421;48.610;9.334;2023-02-03T08:22:12;99300.16;;;4.68;99.79
60589;BME280;46421;48.610;9.334;2023-02-03T08:24:44;99302.25;;;4.76;99.08
60589;BME280;46421;48.610;9.334;2023-02-03T08:27:15;99284.44;;;4.80;100.00
60589;BME280;46421;48.610;9.334;2023-02-03T08:29:41;99292.88;;;4.85;100.00
60589;BME280;46421;48.610;9.334;2023-02-03T08:32:11;99296.97;;;4.76;100.00
60589;BME280;46421;48.610;9.334;2023-02-03T08:34:38;99291.22;;;4.71;100.00
60589;BME280;46421;48.610;9.334;2023-02-03T08:37:03;99305.41;;;4.81;100.00
60589;BME280;46421;48.610;9.334;2023-02-03T08:39:29;99292.44;;;4.78;100.00
60589;BME280;46421;48.610;9.334;2023-02-03T08:41:54;99291.81;;;4.87;100.00
60589;BME280;46421;48.610;9.334;2023-02-03T08:44:20;99285.16;;;4.95;100.00
60589;BME280;46421;48.610;9.334;2023-02-03T08:46:49;99275.22;;;4.98;100.00
60589;BME280;46421;48.610;9.334;2023-02-03T08:49:15;99276.78;;;5.01;100.00
60589;BME280;46421;48.610;9.334;2023-02-03T08:51:40;99275.84;;;5.02;100.00
60589;BME280;46421;48.610;9.334;2023-02-03T08:54:05;99288.97;;;5.15;100.00
60589;BME280;46421;48.610;9.334;2023-02-03T08:56:31;99299.34;;;5.05;100.00
60589;BME280;46421;48.610;9.334;2023-02-03T08:58:58;99299.34;;;5.05;100.00
60589;BME280;46421;48.610;9.334;2023-02-03T09:01:23;99307.44;;;5.15;100.00
60589;BME280;46421;48.610;9.334;2023-02-03T09:03:49;99306.66;;;5.26;100.00
60589;BME280;46421;48.610;9.334;2023-02-03T09:06:14;99280.34;;;5.13;100.00
60589;BME280;46421;48.610;9.334;2023-02-03T09:08:42;99295.94;;;5.16;100.00
60589;BME280;46421;48.610;9.334;2023-02-03T09:11:13;99296.31;;;5.22;100.00
60589;BME280;46421;48.610;9.334;2023-02-03T09:13:39;99303.28;;;5.23;100.00
60589;BME280;46421;48.610;9.334;2023-02-03T09:16:07;99296.09;;;5.50;100.00
60589;BME280;46421;48.610;9.334;2023-02-03T09:18:33;99301.94;;;5.42;100.00
60589;BME280;46421;48.610;9.334;2023-02-03T09:21:00;99284.94;;;5.46;100.00
60589;BME280;46421;48.610;9.334;2023-02-03T09:23:26;99289.41;;;5.57;100.00
60589;BME280;46421;48.610;9.334;2023-02-03T09:25:51;99287.25;;;5.27;100.00
60589;BME280;46421;48.610;9.334;2023-02-03T09:28:17;99281.84;;;5.28;100.00
60589;BME280;46421;48.610;9.334;2023-02-03T09:30:42;99268.75;;;5.40;100.00
60589;BME280;46421;48.610;9.334;2023-02-03T09:33:07;99265.38;;;6.09;100.00
60589;BME280;46421;48.610;9.334;2023-02-03T09:35:33;99278.63;;;5.60;100.00
60589;BME280;46421;48.610;9.334;2023-02-03T09:37:58;99259.16;;;5.50;100.00
60589;BME280;46421;48.610;9.334;2023-02-03T09:40:34;99273.69;;;5.56;100.00
60589;BME280;46421;48.610;9.334;2023-02-03T09:43:08;99283.09;;;5.60;100.00
60589;BME280;46421;48.610;9.334;2023-02-03T09:45:37;99278.69;;;5.47;100.00
60589;BME280;46421;48.610;9.334;2023-02-03T09:48:08;99285.19;;;5.43;100.00
60589;BME280;46421;48.610;9.334;2023-02-03T09:50:37;99288.78;;;5.53;100.00
60589;BME280;46421;48.610;9.334;2023-02-03T09:53:22;99274.28;;;5.48;100.00
60589;BME280;46421;48.610;9.334;2023-02-03T09:55:49;99284.47;;;5.52;100.00
60589;BME280;46421;48.610;9.334;2023-02-03T09:58:17;99289.19;;;5.60;100.00
60589;BME280;46421;48.610;9.334;2023-02-03T10:01:11;99283.59;;;5.76;100.00
60589;BME280;46421;48.610;9.334;2023-02-03T10:03:59;99291.69;;;5.97;98.73
60589;BME280;46421;48.610;9.334;2023-02-03T10:06:37;99284.69;;;6.09;97.21
60589;BME280;46421;48.610;9.334;2023-02-03T10:14:44;99257.56;;;6.64;93.27
60589;BME280;46421;48.610;9.334;2023-02-03T10:17:26;99254.81;;;6.65;93.70
60589;BME280;46421;48.610;9.334;2023-02-03T10:20:01;99245.22;;;6.30;92.49
60589;BME280;46421;48.610;9.334;2023-02-03T10:22:30;99251.34;;;6.42;92.56
60589;BME280;46421;48.610;9.334;2023-02-03T10:27:24;99279.44;;;6.55;91.42
60589;BME280;46421;48.610;9.334;2023-02-03T10:29:58;99271.94;;;6.94;88.00
60589;BME280;46421;48.610;9.334;2023-02-03T10:32:26;99284.47;;;6.58;89.78
60589;BME280;46421;48.610;9.334;2023-02-03T10:34:51;99279.06;;;6.25;90.83
60589;BME280;46421;48.610;9.334;2023-02-03T10:37:33;99274.84;;;6.11;92.15
60589;BME280;46421;48.610;9.334;2023-02-03T10:40:02;99278.47;;;6.33;91.81
60589;BME280;46421;48.610;9.334;2023-02-03T10:42:29;99247.75;;;6.21;89.30
60589;BME280;46421;48.610;9.334;2023-02-03T10:45:14;99282.09;;;6.43;90.19
60589;BME280;46421;48.610;9.334;2023-02-03T10:47:53;99282.53;;;6.26;89.39
60589;BME280;46421;48.610;9.334;2023-02-03T10:50:25;99287.44;;;6.08;91.42
60589;BME280;46421;48.610;9.334;2023-02-03T10:55:51;99280.41;;;5.95;92.44
60589;BME280;46421;48.610;9.334;2023-02-03T10:58:28;99263.13;;;5.91;93.33
60589;BME280;46421;48.610;9.334;2023-02-03T11:00:57;99253.00;;;6.09;93.42
60589;BME280;46421;48.610;9.334;2023-02-03T11:03:28;99235.00;;;6.60;90.67
60589;BME280;46421;48.610;9.334;2023-02-03T11:06:13;99227.63;;;7.51;85.57
60589;BME280;46421;48.610;9.334;2023-02-03T11:08:43;99225.34;;;8.00;82.01
60589;BME280;46421;48.610;9.334;2023-02-03T11:13:53;99217.72;;;7.11;86.39
60589;BME280;46421;48.610;9.334;2023-02-03T11:16:18;99221.44;;;6.64;89.67
60589;BME280;46421;48.610;9.334;2023-02-03T11:21:25;99231.16;;;6.75;88.74
60589;BME280;46421;48.610;9.334;2023-02-03T11:24:17;99218.91;;;6.63;88.23
60589;BME280;46421;48.610;9.334;2023-02-03T11:26:46;99215.09;;;6.33;91.04
60589;BME280;46421;48.610;9.334;2023-02-03T11:29:35;99214.50;;;6.18;90.30
60589;BME280;46421;48.610;9.334;2023-02-03T11:32:26;99221.69;;;6.16;91.20
60589;BME280;46421;48.610;9.334;2023-02-03T11:34:57;99217.38;;;6.38;90.31
60589;BME280;46421;48.610;9.334;2023-02-03T11:37:36;99223.00;;;6.33;89.59
60589;BME280;46421;48.610;9.334;2023-02-03T11:42:41;99206.34;;;6.10;90.56
60589;BME280;46421;48.610;9.334;2023-02-03T11:48:25;99219.03;;;6.05;89.72
60589;BME280;46421;48.610;9.334;2023-02-03T11:56:21;99201.66;;;6.36;88.48
60589;BME280;46421;48.610;9.334;2023-02-03T11:58:52;99208.13;;;6.43;88.20
60589;BME280;46421;48.610;9.334;2023-02-03T12:01:37;99174.28;;;6.37;88.71
60589;BME280;46421;48.610;9.334;2023-02-03T12:12:53;99182.44;;;6.34;86.73
60589;BME280;46421;48.610;9.334;2023-02-03T12:15:57;99180.66;;;6.23;88.14
60589;BME280;46421;48.610;9.334;2023-02-03T12:21:16;99194.19;;;6.19;89.68
60589;BME280;46421;48.610;9.334;2023-02-03T12:29:03;99175.59;;;6.20;90.11
60589;BME280;46421;48.610;9.334;2023-02-03T12:31:57;99190.13;;;6.26;89.12
60589;BME280;46421;48.610;9.334;2023-02-03T12:34:32;99177.53;;;6.18;89.39
60589;BME280;46421;48.610;9.334;2023-02-03T12:37:09;99173.31;;;6.15;88.57
60589;BME280;46421;48.610;9.334;2023-02-03T12:39:51;99187.59;;;6.13;90.22
60589;BME280;46421;48.610;9.334;2023-02-03T12:47:45;99159.84;;;6.30;88.45
60589;BME280;46421;48.610;9.334;2023-02-03T12:53:05;99151.50;;;6.13;88.58
60589;BME280;46421;48.610;9.334;2023-02-03T12:55:37;99130.25;;;6.15;88.43
60589;BME280;46421;48.610;9.334;2023-02-03T12:58:11;99127.22;;;6.08;87.88
60589;BME280;46421;48.610;9.334;2023-02-03T13:00:50;99109.59;;;6.09;88.56
60589;BME280;46421;48.610;9.334;2023-02-03T13:03:26;99111.16;;;6.00;88.95
60589;BME280;46421;48.610;9.334;2023-02-03T13:06:30;99100.38;;;6.03;88.12
60589;BME280;46421;48.610;9.334;2023-02-03T13:09:01;99094.13;;;6.04;88.00
60589;BME280;46421;48.610;9.334;2023-02-03T13:14:22;99074.44;;;6.08;87.44
60589;BME280;46421;48.610;9.334;2023-02-03T13:17:05;99095.56;;;6.08;87.07
60589;BME280;46421;48.610;9.334;2023-02-03T13:19:41;99094.84;;;6.06;86.40
60589;BME280;46421;48.610;9.334;2023-02-03T13:22:13;99103.25;;;6.11;86.93
60589;BME280;46421;48.610;9.334;2023-02-03T13:24:43;99089.53;;;6.17;86.58
60589;BME280;46421;48.610;9.334;2023-02-03T13:27:35;99081.16;;;6.12;85.22
60589;BME280;46421;48.610;9.334;2023-02-03T13:36:08;99116.31;;;6.13;86.65
60589;BME280;46421;48.610;9.334;2023-02-03T13:41:35;99104.94;;;6.12;85.58
60589;BME280;46421;48.610;9.334;2023-02-03T13:44:04;99085.50;;;6.13;86.13
60589;BME280;46421;48.610;9.334;2023-02-03T13:46:33;99076.84;;;6.11;85.72
60589;BME280;46421;48.610;9.334;2023-02-03T13:49:02;99088.09;;;6.25;85.98
60589;BME280;46421;48.610;9.334;2023-02-03T13:51:31;99089.03;;;6.24;85.57
60589;BME280;46421;48.610;9.334;2023-02-03T13:54:03;99077.78;;;6.22;85.22
60589;BME280;46421;48.610;9.334;2023-02-03T13:56:29;99072.00;;;6.28;84.91
60589;BME280;46421;48.610;9.334;2023-02-03T13:59:00;99042.97;;;6.16;85.23
60589;BME280;46421;48.610;9.334;2023-02-03T14:01:29;99057.63;;;6.21;85.53
60589;BME280;46421;48.610;9.334;2023-02-03T14:03:57;99052.34;;;6.21;85.96
60589;BME280;46421;48.610;9.334;2023-02-03T14:09:01;99066.28;;;6.11;85.92
60589;BME280;46421;48.610;9.334;2023-02-03T14:16:34;99074.38;;;6.31;84.71
60589;BME280;46421;48.610;9.334;2023-02-03T14:19:00;99072.00;;;6.28;85.02
60589;BME280;46421;48.610;9.334;2023-02-03T14:21:28;99077.63;;;6.35;85.38
60589;BME280;46421;48.610;9.334;2023-02-03T14:24:04;99089.16;;;6.33;85.31
60589;BME280;46421;48.610;9.334;2023-02-03T14:26:44;99086.19;;;6.27;85.46
60589;BME280;46421;48.610;9.334;2023-02-03T14:29:30;99093.25;;;6.26;85.13
60589;BME280;46421;48.610;9.334;2023-02-03T14:32:09;99092.03;;;6.30;84.52
60589;BME280;46421;48.610;9.334;2023-02-03T14:34:43;99089.41;;;6.30;83.94
60589;BME280;46421;48.610;9.334;2023-02-03T14:37:22;99092.03;;;6.30;84.37
60589;BME280;46421;48.610;9.334;2023-02-03T14:40:23;99092.88;;;6.31;85.47
60589;BME280;46421;48.610;9.334;2023-02-03T14:48:57;99079.22;;;6.26;84.95
60589;BME280;46421;48.610;9.334;2023-02-03T14:59:55;99088.06;;;6.36;84.25
60589;BME280;46421;48.610;9.334;2023-02-03T15:02:26;99086.41;;;6.35;84.32
60589;BME280;46421;48.610;9.334;2023-02-03T15:07:47;99081.84;;;6.37;84.51